Penkridge, United Kingdom
Current Conditions -  °F | °C
As of 9:50 PM on Monday 20 Oct 2014 (Local Time) from EGOS Reporting Station
Scattered Clouds Scattered Clouds  
Wind Chill: 13°   Ceiling: Unl
Heat Index: 13°   Visibility: 6mi
Dew Point:   Wind: 15mph
Humidity: 77%   Direction: 210°SSW
Pressure: 29.77"   Gusts: NA
Location:  52.73°N, 2.12°W
Report Text: EGOS 202050Z 21013KT 9999 FEW028 SCT200 13/09 Q1008 BLU NOSIG
Loading
Personal Weather Stations






























Interactive Weather Map
Tropical Storm Tracking
New forecast layout! Learn more

10-Day Weather Forecast

Advertisements
Track Severe Weather on mobile